sensor_id;sensor_type;location;lat;lon;timestamp;pressure;altitude;pressure_sealevel;temperature;humidity
75008;BME280;63554;48.940;12.050;2022-12-07T00:03:32;97343.53;;;1.33;88.58
75008;BME280;63554;48.940;12.050;2022-12-07T00:07:35;97336.00;;;1.29;88.55
75008;BME280;63554;48.940;12.050;2022-12-07T00:11:40;97332.66;;;1.27;88.71
75008;BME280;63554;48.940;12.050;2022-12-07T00:15:43;97334.88;;;1.31;88.61
75008;BME280;63554;48.940;12.050;2022-12-07T00:19:45;97325.50;;;1.27;88.80
75008;BME280;63554;48.940;12.050;2022-12-07T00:23:49;97315.03;;;1.26;88.82
75008;BME280;63554;48.940;12.050;2022-12-07T00:27:54;97325.50;;;1.27;89.14
75008;BME280;63554;48.940;12.050;2022-12-07T00:31:57;97314.00;;;1.27;88.59
75008;BME280;63554;48.940;12.050;2022-12-07T00:36:01;97315.84;;;1.26;88.96
75008;BME280;63554;48.940;12.050;2022-12-07T00:40:05;97320.16;;;1.27;88.82
75008;BME280;63554;48.940;12.050;2022-12-07T00:44:10;97313.84;;;1.28;88.71
75008;BME280;63554;48.940;12.050;2022-12-07T00:48:12;97317.69;;;1.26;89.06
75008;BME280;63554;48.940;12.050;2022-12-07T00:52:15;97310.00;;;1.23;88.51
75008;BME280;63554;48.940;12.050;2022-12-07T00:56:20;97316.50;;;1.20;88.78
75008;BME280;63554;48.940;12.050;2022-12-07T01:00:25;97315.84;;;1.18;88.54
75008;BME280;63554;48.940;12.050;2022-12-07T01:04:27;97321.47;;;1.15;88.42
75008;BME280;63554;48.940;12.050;2022-12-07T01:08:30;97318.81;;;1.15;88.27
75008;BME280;63554;48.940;12.050;2022-12-07T01:12:33;97315.97;;;1.16;88.38
75008;BME280;63554;48.940;12.050;2022-12-07T01:16:38;97325.81;;;1.16;88.47
75008;BME280;63554;48.940;12.050;2022-12-07T01:20:41;97328.50;;;1.16;88.62
75008;BME280;63554;48.940;12.050;2022-12-07T01:24:44;97331.16;;;1.16;88.35
75008;BME280;63554;48.940;12.050;2022-12-07T01:28:48;97331.31;;;1.14;88.64
75008;BME280;63554;48.940;12.050;2022-12-07T01:32:52;97318.63;;;1.08;88.95
75008;BME280;63554;48.940;12.050;2022-12-07T01:36:55;97330.78;;;1.11;88.79
75008;BME280;63554;48.940;12.050;2022-12-07T01:40:58;97321.75;;;1.04;88.29
75008;BME280;63554;48.940;12.050;2022-12-07T01:49:49;97320.41;;;0.99;88.61
75008;BME280;63554;48.940;12.050;2022-12-07T01:53:52;97315.94;;;1.00;88.08
75008;BME280;63554;48.940;12.050;2022-12-07T01:57:55;97315.06;;;0.99;86.82
75008;BME280;63554;48.940;12.050;2022-12-07T02:01:58;97308.78;;;1.01;85.66
75008;BME280;63554;48.940;12.050;2022-12-07T02:06:02;97311.78;;;1.06;83.01
75008;BME280;63554;48.940;12.050;2022-12-07T02:10:14;97324.97;;;1.15;83.11
75008;BME280;63554;48.940;12.050;2022-12-07T02:14:17;97322.28;;;1.15;83.93
75008;BME280;63554;48.940;12.050;2022-12-07T02:18:25;97326.94;;;1.13;83.64
75008;BME280;63554;48.940;12.050;2022-12-07T02:27:24;97311.94;;;1.04;86.29
75008;BME280;63554;48.940;12.050;2022-12-07T02:31:32;97322.63;;;1.04;85.83
75008;BME280;63554;48.940;12.050;2022-12-07T02:35:39;97310.28;;;1.03;84.51
75008;BME280;63554;48.940;12.050;2022-12-07T02:39:46;97299.31;;;1.06;84.03
75008;BME280;63554;48.940;12.050;2022-12-07T02:43:53;97302.47;;;1.10;83.79
75008;BME280;63554;48.940;12.050;2022-12-07T02:48:00;97306.81;;;1.11;84.21
75008;BME280;63554;48.940;12.050;2022-12-07T02:52:03;97306.81;;;1.11;84.50
75008;BME280;63554;48.940;12.050;2022-12-07T02:56:10;97315.63;;;1.11;84.89
75008;BME280;63554;48.940;12.050;2022-12-07T03:00:18;97295.09;;;1.04;85.45
75008;BME280;63554;48.940;12.050;2022-12-07T03:04:32;97300.78;;;1.01;85.79
75008;BME280;63554;48.940;12.050;2022-12-07T03:08:46;97306.41;;;0.97;86.00
75008;BME280;63554;48.940;12.050;2022-12-07T03:12:58;97291.75;;;0.93;86.11
75008;BME280;63554;48.940;12.050;2022-12-07T16:36:01;97143.38;;;3.03;90.93
75008;BME280;63554;48.940;12.050;2022-12-07T16:40:05;97127.03;;;3.59;88.36
75008;BME280;63554;48.940;12.050;2022-12-07T16:44:11;97128.72;;;3.60;91.62
75008;BME280;63554;48.940;12.050;2022-12-07T16:48:15;97127.34;;;3.64;86.49
75008;BME280;63554;48.940;12.050;2022-12-07T16:52:20;97122.34;;;3.23;82.94
75008;BME280;63554;48.940;12.050;2022-12-07T16:56:23;97131.16;;;2.77;81.93
75008;BME280;63554;48.940;12.050;2022-12-07T17:00:27;97123.69;;;2.41;82.83
75008;BME280;63554;48.940;12.050;2022-12-07T17:04:30;97137.78;;;2.18;83.46
75008;BME280;63554;48.940;12.050;2022-12-07T17:08:34;97134.81;;;2.05;83.71
75008;BME280;63554;48.940;12.050;2022-12-07T17:12:37;97125.66;;;2.00;84.23
75008;BME280;63554;48.940;12.050;2022-12-07T17:16:40;97118.81;;;1.97;84.21
75008;BME280;63554;48.940;12.050;2022-12-07T17:20:43;97124.31;;;1.95;84.20
75008;BME280;63554;48.940;12.050;2022-12-07T17:24:47;97128.34;;;1.91;84.27
75008;BME280;63554;48.940;12.050;2022-12-07T17:28:50;97113.84;;;1.86;84.60
75008;BME280;63554;48.940;12.050;2022-12-07T17:32:53;97119.19;;;1.86;84.69
75008;BME280;63554;48.940;12.050;2022-12-07T17:36:55;97119.53;;;1.83;84.77
75008;BME280;63554;48.940;12.050;2022-12-07T17:40:59;97115.16;;;1.90;84.78
75008;BME280;63554;48.940;12.050;2022-12-07T17:45:03;97120.00;;;1.94;84.42
75008;BME280;63554;48.940;12.050;2022-12-07T17:49:06;97114.34;;;1.89;84.55
75008;BME280;63554;48.940;12.050;2022-12-07T17:53:10;97115.16;;;1.90;84.79
75008;BME280;63554;48.940;12.050;2022-12-07T17:57:14;97114.34;;;1.89;84.45
75008;BME280;63554;48.940;12.050;2022-12-07T18:01:17;97117.38;;;1.86;84.46
75008;BME280;63554;48.940;12.050;2022-12-07T18:05:24;97105.19;;;1.84;84.70
75008;BME280;63554;48.940;12.050;2022-12-07T18:09:27;97105.19;;;1.84;84.79
75008;BME280;63554;48.940;12.050;2022-12-07T18:13:32;97106.00;;;1.84;84.86
75008;BME280;63554;48.940;12.050;2022-12-07T18:17:38;97111.69;;;1.81;85.05
75008;BME280;63554;48.940;12.050;2022-12-07T18:21:43;97112.03;;;1.78;84.97
75008;BME280;63554;48.940;12.050;2022-12-07T18:25:47;97117.56;;;1.76;85.10
75008;BME280;63554;48.940;12.050;2022-12-07T18:29:51;97117.22;;;1.71;85.27
75008;BME280;63554;48.940;12.050;2022-12-07T18:33:55;97114.19;;;1.74;85.60
75008;BME280;63554;48.940;12.050;2022-12-07T18:37:58;97119.88;;;1.71;85.75
75008;BME280;63554;48.940;12.050;2022-12-07T18:42:00;97116.88;;;1.74;85.81
75008;BME280;63554;48.940;12.050;2022-12-07T18:46:10;97124.22;;;1.81;85.54
75008;BME280;63554;48.940;12.050;2022-12-07T18:50:13;97113.34;;;1.82;85.36
75008;BME280;63554;48.940;12.050;2022-12-07T18:54:16;97121.03;;;1.85;86.08
75008;BME280;63554;48.940;12.050;2022-12-07T18:58:19;97119.84;;;1.88;86.42
75008;BME280;63554;48.940;12.050;2022-12-07T19:02:23;97126.19;;;1.87;86.15
75008;BME280;63554;48.940;12.050;2022-12-07T19:06:27;97118.03;;;1.80;85.93
75008;BME280;63554;48.940;12.050;2022-12-07T19:10:29;97122.38;;;1.81;86.17
75008;BME280;63554;48.940;12.050;2022-12-07T19:14:35;97117.88;;;1.82;86.09
75008;BME280;63554;48.940;12.050;2022-12-07T19:18:39;97114.38;;;1.81;86.10
75008;BME280;63554;48.940;12.050;2022-12-07T19:22:48;97104.38;;;1.75;85.68
75008;BME280;63554;48.940;12.050;2022-12-07T19:26:51;97101.88;;;1.73;85.59
75008;BME280;63554;48.940;12.050;2022-12-07T19:30:54;97104.22;;;1.68;85.61
75008;BME280;63554;48.940;12.050;2022-12-07T19:34:58;97107.22;;;1.65;85.60
75008;BME280;63554;48.940;12.050;2022-12-07T19:39:01;97104.06;;;1.70;85.85
75008;BME280;63554;48.940;12.050;2022-12-07T19:43:04;97100.84;;;1.74;85.56
75008;BME280;63554;48.940;12.050;2022-12-07T19:47:06;97107.53;;;1.70;85.26
75008;BME280;63554;48.940;12.050;2022-12-07T19:51:10;97107.41;;;1.55;85.85
75008;BME280;63554;48.940;12.050;2022-12-07T19:55:13;97088.59;;;1.41;86.23
75008;BME280;63554;48.940;12.050;2022-12-07T19:59:17;97086.59;;;1.34;86.59
75008;BME280;63554;48.940;12.050;2022-12-07T20:03:20;97084.63;;;1.28;86.76
75008;BME280;63554;48.940;12.050;2022-12-07T20:07:24;97098.09;;;1.27;86.86
75008;BME280;63554;48.940;12.050;2022-12-07T20:11:27;97093.94;;;1.24;86.90
75008;BME280;63554;48.940;12.050;2022-12-07T20:15:48;97085.28;;;1.22;87.16
75008;BME280;63554;48.940;12.050;2022-12-07T20:19:50;97084.63;;;1.20;87.26
75008;BME280;63554;48.940;12.050;2022-12-07T20:23:54;97086.63;;;1.18;87.57
75008;BME280;63554;48.940;12.050;2022-12-07T20:27:57;97083.28;;;1.16;87.72
75008;BME280;63554;48.940;12.050;2022-12-07T20:32:00;97075.09;;;1.17;87.54
75008;BME280;63554;48.940;12.050;2022-12-07T20:36:04;97084.47;;;1.22;87.44
75008;BME280;63554;48.940;12.050;2022-12-07T20:40:11;97088.94;;;1.21;87.52
75008;BME280;63554;48.940;12.050;2022-12-07T20:44:14;97072.81;;;1.14;87.48
75008;BME280;63554;48.940;12.050;2022-12-07T20:48:17;97079.31;;;1.12;87.39
75008;BME280;63554;48.940;12.050;2022-12-07T20:52:20;97089.09;;;1.11;87.50
75008;BME280;63554;48.940;12.050;2022-12-07T21:00:35;97070.44;;;1.11;87.95
75008;BME280;63554;48.940;12.050;2022-12-07T21:04:38;97062.97;;;1.07;87.96
75008;BME280;63554;48.940;12.050;2022-12-07T21:08:43;97060.16;;;1.00;87.92
75008;BME280;63554;48.940;12.050;2022-12-07T21:12:46;97055.16;;;0.97;87.98
75008;BME280;63554;48.940;12.050;2022-12-07T21:16:57;97057.31;;;0.93;87.97
75008;BME280;63554;48.940;12.050;2022-12-07T21:21:01;97055.47;;;0.86;88.31
75008;BME280;63554;48.940;12.050;2022-12-07T21:25:04;97057.47;;;0.75;88.47
75008;BME280;63554;48.940;12.050;2022-12-07T21:29:14;97048.97;;;0.72;88.67
75008;BME280;63554;48.940;12.050;2022-12-07T21:33:22;97051.78;;;0.70;88.72
75008;BME280;63554;48.940;12.050;2022-12-07T21:37:24;97047.97;;;0.65;88.74
75008;BME280;63554;48.940;12.050;2022-12-07T21:41:35;97050.63;;;0.65;88.80
75008;BME280;63554;48.940;12.050;2022-12-07T21:45:37;97041.13;;;0.62;88.95
75008;BME280;63554;48.940;12.050;2022-12-07T21:49:41;97038.31;;;0.55;89.05
75008;BME280;63554;48.940;12.050;2022-12-07T21:53:44;97044.97;;;0.51;89.09
75008;BME280;63554;48.940;12.050;2022-12-07T21:57:47;97037.28;;;0.48;89.41
75008;BME280;63554;48.940;12.050;2022-12-07T22:01:50;97033.97;;;0.46;89.48
75008;BME280;63554;48.940;12.050;2022-12-07T22:05:59;97035.44;;;0.41;89.15
75008;BME280;63554;48.940;12.050;2022-12-07T22:10:03;97032.13;;;0.30;88.57
75008;BME280;63554;48.940;12.050;2022-12-07T22:14:08;97028.59;;;0.22;88.49
75008;BME280;63554;48.940;12.050;2022-12-07T22:18:28;97031.06;;;0.15;88.87
75008;BME280;63554;48.940;12.050;2022-12-07T22:22:32;97031.88;;;0.07;89.65
75008;BME280;63554;48.940;12.050;2022-12-07T22:26:35;97027.22;;;0.09;90.13
75008;BME280;63554;48.940;12.050;2022-12-07T22:30:37;97022.56;;;0.11;90.15
75008;BME280;63554;48.940;12.050;2022-12-07T22:34:40;97019.09;;;0.11;90.11
75008;BME280;63554;48.940;12.050;2022-12-07T22:38:45;97019.25;;;0.09;89.91
75008;BME280;63554;48.940;12.050;2022-12-07T22:42:48;97010.59;;;0.07;89.79
75008;BME280;63554;48.940;12.050;2022-12-07T22:46:50;97000.59;;;0.01;89.62
75008;BME280;63554;48.940;12.050;2022-12-07T22:50:53;97003.59;;;-0.02;89.83
75008;BME280;63554;48.940;12.050;2022-12-07T22:54:57;97000.91;;;-0.10;89.95
75008;BME280;63554;48.940;12.050;2022-12-07T22:59:00;96997.91;;;-0.15;90.01
75008;BME280;63554;48.940;12.050;2022-12-07T23:03:03;96991.94;;;-0.17;89.94
75008;BME280;63554;48.940;12.050;2022-12-07T23:07:06;97000.22;;;-0.21;90.30
75008;BME280;63554;48.940;12.050;2022-12-07T23:11:12;96981.88;;;-0.32;89.94
75008;BME280;63554;48.940;12.050;2022-12-07T23:15:39;96987.53;;;-0.35;90.06
75008;BME280;63554;48.940;12.050;2022-12-07T23:19:41;96975.72;;;-0.41;90.92
75008;BME280;63554;48.940;12.050;2022-12-07T23:23:44;96988.84;;;-0.39;91.44
75008;BME280;63554;48.940;12.050;2022-12-07T23:27:48;96988.19;;;-0.41;91.76
75008;BME280;63554;48.940;12.050;2022-12-07T23:31:51;96991.66;;;-0.41;91.72
75008;BME280;63554;48.940;12.050;2022-12-07T23:35:54;96987.84;;;-0.38;91.80
75008;BME280;63554;48.940;12.050;2022-12-07T23:39:57;96979.84;;;-0.46;91.66
75008;BME280;63554;48.940;12.050;2022-12-07T23:44:01;96993.97;;;-0.46;91.84
75008;BME280;63554;48.940;12.050;2022-12-07T23:48:04;96983.13;;;-0.52;91.60
75008;BME280;63554;48.940;12.050;2022-12-07T23:52:07;96987.28;;;-0.50;91.70
75008;BME280;63554;48.940;12.050;2022-12-07T23:56:11;96985.28;;;-0.56;91.78
